Time;durP1;ratioP1;P1;durP2;ratioP2;P2;SDS_P1;SDS_P2;PMS_P1;PMS_P2;Temp;Humidity;BMP_temperature;BMP_pressure;BME280_temperature;BME280_humidity;BME280_pressure;Samples;Min_cycle;Max_cycle;Signal;HPM_P1;HPM_P2
2022/03/27 00:01:48;;;;;;;119.55;108.88;;;12.20;67.20;;;;;;5034249;28;20121;-74
2022/03/27 00:04:15;;;;;;;119.03;108.32;;;12.20;67.20;;;;;;5032430;28;20566;-74
2022/03/27 00:06:41;;;;;;;119.50;108.80;;;12.20;67.20;;;;;;5032941;28;20049;-74
2022/03/27 00:09:09;;;;;;;119.88;109.22;;;12.10;67.10;;;;;;5034087;28;20058;-74
2022/03/27 00:11:36;;;;;;;119.07;108.47;;;12.10;67.00;;;;;;5033184;28;20052;-74
2022/03/27 00:14:04;;;;;;;119.15;108.60;;;12.10;67.00;;;;;;5032923;28;20062;-74
2022/03/27 00:16:32;;;;;;;119.70;109.00;;;12.00;66.70;;;;;;5032641;28;20046;-74
2022/03/27 00:19:01;;;;;;;117.78;107.28;;;12.00;66.60;;;;;;5033718;28;20124;-74
2022/03/27 00:21:28;;;;;;;117.78;107.30;;;11.90;66.70;;;;;;5033054;28;20042;-74
2022/03/27 00:23:55;;;;;;;117.45;107.03;;;11.90;66.60;;;;;;5032664;28;20149;-74
2022/03/27 00:26:23;;;;;;;117.50;107.05;;;11.80;66.60;;;;;;5026311;28;20050;-74
2022/03/27 00:28:51;;;;;;;117.70;107.13;;;11.70;66.70;;;;;;5012429;28;20535;-74
2022/03/27 00:31:18;;;;;;;117.20;106.70;;;11.70;66.80;;;;;;5012901;28;20129;-75
2022/03/27 00:33:47;;;;;;;118.95;108.10;;;11.60;67.20;;;;;;5014710;28;20054;-74
2022/03/27 00:36:16;;;;;;;118.40;107.70;;;11.50;67.50;;;;;;5012637;28;20046;-74
2022/03/27 00:38:44;;;;;;;118.38;107.63;;;11.50;68.10;;;;;;5012286;28;20064;-74
2022/03/27 00:41:11;;;;;;;119.07;108.18;;;11.50;68.90;;;;;;5013672;28;20056;-74
2022/03/27 00:43:39;;;;;;;118.65;107.95;;;11.40;69.00;;;;;;5012489;28;20535;-74
2022/03/27 00:46:07;;;;;;;119.85;109.05;;;11.40;69.30;;;;;;5013812;28;20054;-74
2022/03/27 00:48:35;;;;;;;120.75;109.82;;;11.40;69.50;;;;;;5012320;28;20057;-74
2022/03/27 00:51:02;;;;;;;123.05;111.10;;;11.40;69.60;;;;;;5012247;28;20047;-74
2022/03/27 00:53:31;;;;;;;121.80;110.72;;;11.40;70.00;;;;;;5012589;28;20046;-74
2022/03/27 00:55:58;;;;;;;121.43;110.32;;;11.40;70.10;;;;;;5012643;28;20058;-74
2022/03/27 00:58:25;;;;;;;122.25;111.05;;;11.40;70.20;;;;;;5013461;28;20058;-74
2022/03/27 01:00:57;;;;;;;122.93;111.22;;;11.30;70.30;;;;;;5013773;28;20042;-74
2022/03/27 01:03:26;;;;;;;122.38;111.18;;;11.30;70.20;;;;;;5016779;28;20058;-74
2022/03/27 01:05:55;;;;;;;121.30;110.00;;;11.20;70.30;;;;;;5016000;28;20051;-74
2022/03/27 01:11:12;;;;;;;120.07;109.05;;;11.20;70.50;;;;;;5016573;28;20137;-74
2022/03/27 01:13:43;;;;;;;120.07;108.97;;;11.20;70.70;;;;;;5015790;28;20133;-74
2022/03/27 01:16:16;;;;;;;118.97;108.00;;;11.20;70.80;;;;;;5016997;28;20081;-74
2022/03/27 01:18:43;;;;;;;119.88;108.70;;;11.20;71.00;;;;;;5016839;28;20061;-74
2022/03/27 01:21:12;;;;;;;121.45;110.05;;;11.20;71.00;;;;;;5016691;28;20058;-74
2022/03/27 01:23:39;;;;;;;122.53;111.25;;;11.10;71.00;;;;;;5015522;28;20058;-74
2022/03/27 01:26:06;;;;;;;122.45;111.13;;;11.10;71.00;;;;;;5015453;28;20991;-74
2022/03/27 01:28:33;;;;;;;123.28;111.82;;;11.10;71.00;;;;;;5015412;28;20050;-74
2022/03/27 01:31:00;;;;;;;124.80;113.32;;;11.10;70.80;;;;;;5015376;28;20129;-74
2022/03/27 01:33:27;;;;;;;123.75;112.28;;;11.10;70.80;;;;;;5015502;28;20508;-74
2022/03/27 01:35:54;;;;;;;123.82;112.32;;;11.10;71.00;;;;;;5014856;28;20134;-74
2022/03/27 01:38:22;;;;;;;125.57;113.85;;;11.10;71.10;;;;;;5015218;28;20504;-74
2022/03/27 01:40:49;;;;;;;126.00;114.30;;;11.10;71.10;;;;;;5016518;28;20047;-74
2022/03/27 01:43:16;;;;;;;125.18;113.47;;;11.10;70.90;;;;;;5015265;28;20064;-74
2022/03/27 01:45:43;;;;;;;125.75;113.90;;;11.10;70.80;;;;;;5015001;28;20495;-74
2022/03/27 01:48:10;;;;;;;126.88;115.18;;;11.00;70.60;;;;;;5016249;28;20114;-74
2022/03/27 01:50:37;;;;;;;126.28;114.50;;;11.00;70.60;;;;;;5015325;28;20565;-74
2022/03/27 01:53:04;;;;;;;127.72;115.93;;;11.00;70.30;;;;;;4999060;28;20050;-74
2022/03/27 01:55:32;;;;;;;127.90;116.00;;;11.00;70.10;;;;;;5015493;28;20062;-74
2022/03/27 01:57:59;;;;;;;126.10;114.30;;;11.00;70.10;;;;;;5015093;28;20558;-73
2022/03/27 02:00:26;;;;;;;127.13;115.38;;;10.90;70.10;;;;;;5014876;28;20047;-74
2022/03/27 02:02:53;;;;;;;127.05;115.18;;;10.90;70.20;;;;;;5016159;28;20058;-73
2022/03/27 02:05:20;;;;;;;126.60;114.70;;;10.90;70.20;;;;;;4998012;28;20050;-74
2022/03/27 02:07:47;;;;;;;127.20;115.28;;;10.90;70.20;;;;;;5015688;28;20054;-74
2022/03/27 02:10:17;;;;;;;126.38;114.55;;;10.90;70.30;;;;;;5014907;28;20104;-74
2022/03/27 02:12:46;;;;;;;126.07;114.38;;;10.90;70.20;;;;;;5014684;28;20051;-73
2022/03/27 02:15:13;;;;;;;128.38;116.53;;;10.80;70.10;;;;;;5014488;28;20054;-74
2022/03/27 02:17:40;;;;;;;125.85;114.22;;;10.90;70.10;;;;;;5015637;28;20051;-74
2022/03/27 02:20:08;;;;;;;127.10;115.22;;;10.90;70.60;;;;;;5015898;28;20213;-74
2022/03/27 02:22:35;;;;;;;127.68;115.78;;;10.80;70.70;;;;;;5014691;28;20548;-74
2022/03/27 02:25:02;;;;;;;126.43;114.70;;;10.80;70.70;;;;;;5015903;28;20054;-74
2022/03/27 02:27:29;;;;;;;124.55;112.70;;;10.80;70.80;;;;;;5014603;28;21041;-74
2022/03/27 02:29:57;;;;;;;120.53;109.53;;;10.80;70.90;;;;;;5014521;28;20133;-74
2022/03/27 02:32:24;;;;;;;118.35;107.53;;;10.80;71.00;;;;;;5015683;28;20056;-74
2022/03/27 02:34:51;;;;;;;119.45;108.45;;;10.80;71.00;;;;;;5014711;28;20117;-74
2022/03/27 02:37:18;;;;;;;118.65;107.68;;;10.70;70.80;;;;;;5014375;28;20508;-74
2022/03/27 02:39:45;;;;;;;118.53;107.45;;;10.70;70.70;;;;;;5015904;28;20056;-73
2022/03/27 02:42:12;;;;;;;121.80;110.57;;;10.70;70.20;;;;;;5015804;28;20046;-74
2022/03/27 02:44:39;;;;;;;118.63;107.75;;;10.70;70.20;;;;;;5034038;28;20054;-73
2022/03/27 02:47:08;;;;;;;122.25;111.15;;;10.70;70.60;;;;;;5034842;28;20053;-74
2022/03/27 02:49:35;;;;;;;119.15;108.03;;;10.70;70.70;;;;;;5033913;28;20128;-74
2022/03/27 02:52:02;;;;;;;119.07;108.03;;;10.60;70.70;;;;;;5034001;28;20500;-74
2022/03/27 02:54:29;;;;;;;119.50;108.40;;;10.60;70.20;;;;;;5033927;28;20056;-74
2022/03/27 02:56:56;;;;;;;120.53;109.35;;;10.70;70.40;;;;;;5033575;28;20046;-74
2022/03/27 02:59:25;;;;;;;119.75;108.32;;;10.60;70.40;;;;;;5035042;28;21015;-74
2022/03/27 03:01:52;;;;;;;119.85;108.72;;;10.60;70.50;;;;;;5033686;28;20050;-74
2022/03/27 03:04:20;;;;;;;118.95;107.65;;;10.60;70.40;;;;;;5033498;28;20062;-74
2022/03/27 03:06:48;;;;;;;119.28;107.97;;;10.60;70.60;;;;;;5033650;28;20050;-73
2022/03/27 03:09:15;;;;;;;120.05;108.50;;;10.60;70.00;;;;;;5016904;28;20121;-74
2022/03/27 03:11:44;;;;;;;121.25;109.50;;;10.60;69.80;;;;;;5033587;28;20061;-73
2022/03/27 03:14:12;;;;;;;119.97;108.53;;;10.60;70.10;;;;;;5034868;28;20061;-74
2022/03/27 03:16:39;;;;;;;122.25;110.50;;;10.60;70.00;;;;;;5032437;28;20088;-74
2022/03/27 03:19:07;;;;;;;119.65;108.35;;;10.50;70.10;;;;;;5033602;28;20048;-74
2022/03/27 03:21:35;;;;;;;119.55;108.00;;;10.50;70.20;;;;;;5033491;28;20057;-74
2022/03/27 03:24:02;;;;;;;121.63;109.90;;;10.50;70.10;;;;;;5032896;28;20054;-74
2022/03/27 03:26:30;;;;;;;121.68;109.50;;;10.50;70.00;;;;;;5033821;28;20132;-74
2022/03/27 03:28:56;;;;;;;121.20;109.53;;;10.50;70.30;;;;;;5034615;28;20046;-73
2022/03/27 03:31:23;;;;;;;120.65;109.07;;;10.50;70.60;;;;;;5033570;28;20046;-74
2022/03/27 03:33:50;;;;;;;121.40;109.53;;;10.50;70.70;;;;;;5034796;28;20054;-73
2022/03/27 03:36:17;;;;;;;120.47;108.82;;;10.40;70.90;;;;;;5016783;28;20042;-74
2022/03/27 03:38:46;;;;;;;123.60;111.65;;;10.40;71.00;;;;;;5033981;28;20046;-73
2022/03/27 03:41:12;;;;;;;123.05;110.95;;;10.40;70.80;;;;;;5033030;28;20049;-73
2022/03/27 03:43:39;;;;;;;121.47;109.72;;;10.40;71.20;;;;;;5033254;28;20141;-74
2022/03/27 03:46:07;;;;;;;121.97;110.00;;;10.40;71.70;;;;;;5035549;28;20057;-74
2022/03/27 03:48:44;;;;;;;120.47;108.72;;;10.40;71.90;;;;;;5035564;28;20042;-74
2022/03/27 03:51:10;;;;;;;123.10;111.32;;;10.40;72.20;;;;;;5032089;28;20057;-74
2022/03/27 03:53:37;;;;;;;121.68;109.68;;;10.40;72.00;;;;;;5032383;28;20049;-73
2022/03/27 03:56:06;;;;;;;122.82;110.78;;;10.30;71.80;;;;;;5032970;28;20050;-74
2022/03/27 03:58:33;;;;;;;121.43;109.55;;;10.30;71.50;;;;;;5032755;28;20126;-73
2022/03/27 04:01:00;;;;;;;122.53;110.20;;;10.30;72.10;;;;;;5033294;28;20058;-73
2022/03/27 04:03:27;;;;;;;122.78;110.60;;;10.30;72.10;;;;;;5033053;28;20080;-73
2022/03/27 04:05:54;;;;;;;122.63;110.72;;;10.30;72.50;;;;;;5034262;28;20054;-73
2022/03/27 04:08:21;;;;;;;124.03;111.68;;;10.30;72.70;;;;;;5032627;28;20121;-73
2022/03/27 04:10:47;;;;;;;120.82;109.13;;;10.30;72.90;;;;;;5034391;28;20050;-73
2022/03/27 04:13:16;;;;;;;122.68;110.78;;;10.20;73.10;;;;;;5033230;28;20069;-73
2022/03/27 04:15:42;;;;;;;122.07;110.00;;;10.20;73.20;;;;;;5034211;28;20064;-73
2022/03/27 04:18:10;;;;;;;121.93;109.82;;;10.20;73.40;;;;;;5033957;28;20133;-73
2022/03/27 04:20:36;;;;;;;121.97;109.75;;;10.20;73.40;;;;;;5032910;28;20058;-73
2022/03/27 04:23:03;;;;;;;120.15;108.50;;;10.10;73.50;;;;;;5033918;28;20050;-73
2022/03/27 04:25:30;;;;;;;119.47;107.45;;;10.10;73.40;;;;;;5025181;28;20059;-74
2022/03/27 04:27:57;;;;;;;120.45;108.35;;;10.10;73.70;;;;;;5013583;28;20046;-73
2022/03/27 04:30:26;;;;;;;120.60;108.65;;;10.10;73.90;;;;;;5013916;28;20062;-73
2022/03/27 04:32:53;;;;;;;119.07;107.43;;;10.10;74.20;;;;;;5013902;28;20054;-73
2022/03/27 04:35:20;;;;;;;118.85;107.25;;;10.10;73.80;;;;;;5012752;28;20062;-73
2022/03/27 04:37:47;;;;;;;119.28;107.57;;;10.00;73.40;;;;;;4996057;28;20050;-73
2022/03/27 04:40:15;;;;;;;118.65;107.03;;;10.00;74.00;;;;;;5012528;28;20050;-74
2022/03/27 04:42:42;;;;;;;118.35;106.80;;;10.00;74.20;;;;;;5012373;28;20125;-73
2022/03/27 04:45:10;;;;;;;119.78;107.63;;;10.00;74.30;;;;;;5013609;28;20440;-73
2022/03/27 04:47:39;;;;;;;118.82;107.22;;;10.00;74.40;;;;;;5012484;28;20051;-73
2022/03/27 04:50:08;;;;;;;119.72;107.53;;;10.00;74.50;;;;;;5012596;28;20054;-73
2022/03/27 04:52:35;;;;;;;119.45;107.40;;;10.00;74.90;;;;;;5012798;28;20062;-73
2022/03/27 04:55:03;;;;;;;120.68;108.45;;;9.90;75.10;;;;;;5013706;28;20129;-74
2022/03/27 04:57:33;;;;;;;120.00;107.97;;;9.90;75.30;;;;;;5013444;28;20053;-73
2022/03/27 05:00:01;;;;;;;121.70;108.82;;;9.90;75.70;;;;;;5020006;28;20128;-73
2022/03/27 05:02:29;;;;;;;121.22;108.72;;;9.90;76.00;;;;;;5032308;28;20053;-74
2022/03/27 05:04:57;;;;;;;120.05;108.00;;;9.90;76.30;;;;;;5032579;28;20058;-73
2022/03/27 05:07:24;;;;;;;119.20;107.15;;;9.80;76.70;;;;;;5032900;28;20054;-73
2022/03/27 05:09:51;;;;;;;120.25;108.15;;;9.80;77.00;;;;;;5033115;28;20137;-73
2022/03/27 05:12:17;;;;;;;121.35;108.80;;;9.80;77.40;;;;;;5031398;28;20122;-73
2022/03/27 05:14:44;;;;;;;119.88;107.63;;;9.80;77.80;;;;;;5032065;28;20058;-73
2022/03/27 05:17:11;;;;;;;121.90;109.45;;;9.80;78.20;;;;;;5032691;28;20086;-73
2022/03/27 05:19:38;;;;;;;119.78;107.18;;;9.80;78.50;;;;;;5031545;28;20145;-73
2022/03/27 05:22:07;;;;;;;118.18;106.50;;;9.70;78.70;;;;;;5015142;28;20049;-73
2022/03/27 05:24:34;;;;;;;120.72;108.03;;;9.70;79.10;;;;;;5015128;28;20060;-73
2022/03/27 05:27:01;;;;;;;120.18;107.85;;;9.70;79.20;;;;;;5030993;28;20061;-73
2022/03/27 05:29:28;;;;;;;119.25;107.30;;;9.80;79.50;;;;;;5032788;28;20057;-73
2022/03/27 05:31:57;;;;;;;120.55;108.25;;;9.80;79.70;;;;;;5032790;28;20096;-73
2022/03/27 05:34:25;;;;;;;126.82;113.85;;;9.70;79.90;;;;;;5029554;28;20100;-74
2022/03/27 05:36:51;;;;;;;119.00;107.18;;;9.80;80.20;;;;;;5013060;28;20081;-73
2022/03/27 05:39:20;;;;;;;120.32;107.65;;;9.80;80.40;;;;;;5024103;28;20046;-73
2022/03/27 05:41:47;;;;;;;120.60;107.75;;;9.80;80.80;;;;;;5031356;28;20046;-73
2022/03/27 05:44:15;;;;;;;120.53;108.10;;;9.70;80.80;;;;;;5019888;28;20133;-73
2022/03/27 05:46:42;;;;;;;122.55;109.53;;;9.70;81.00;;;;;;5015187;28;20113;-73
2022/03/27 05:49:09;;;;;;;123.80;110.68;;;9.70;81.20;;;;;;5031577;28;20508;-73
2022/03/27 05:51:35;;;;;;;122.47;109.47;;;9.70;81.30;;;;;;5017199;28;20050;-73
2022/03/27 05:54:03;;;;;;;125.85;112.47;;;9.70;81.20;;;;;;5016214;28;20431;-73
2022/03/27 05:56:31;;;;;;;124.65;111.22;;;9.70;81.90;;;;;;4998358;28;20060;-74
2022/03/27 05:58:58;;;;;;;123.50;110.22;;;9.70;82.20;;;;;;5030920;28;20049;-73
2022/03/27 06:01:26;;;;;;;124.80;109.90;;;9.70;82.80;;;;;;5019964;28;20133;-73
2022/03/27 06:03:53;;;;;;;123.35;110.07;;;9.70;83.00;;;;;;5024803;28;20630;-73
2022/03/27 06:06:20;;;;;;;125.07;111.85;;;9.70;83.10;;;;;;5024044;28;20046;-74
2022/03/27 06:08:47;;;;;;;123.35;109.93;;;9.70;83.40;;;;;;5015833;28;20061;-73
2022/03/27 06:11:14;;;;;;;128.90;110.60;;;9.70;83.90;;;;;;5014358;28;20054;-73
2022/03/27 06:13:42;;;;;;;129.43;110.05;;;9.60;83.90;;;;;;5015160;28;20053;-73
2022/03/27 06:16:09;;;;;;;123.03;108.30;;;9.60;84.30;;;;;;5014827;28;20054;-73
2022/03/27 06:18:36;;;;;;;124.22;110.60;;;9.70;84.40;;;;;;5012995;28;20145;-73
2022/03/27 06:21:03;;;;;;;122.97;110.00;;;9.70;84.60;;;;;;5016149;28;20063;-73
2022/03/27 06:23:30;;;;;;;122.15;108.95;;;9.70;85.00;;;;;;5014515;28;20093;-73
2022/03/27 06:25:57;;;;;;;122.63;109.20;;;9.70;84.90;;;;;;5014843;28;20051;-73
2022/03/27 06:28:24;;;;;;;123.88;110.50;;;9.70;85.10;;;;;;5014411;28;20050;-73
2022/03/27 06:30:52;;;;;;;124.00;109.03;;;9.70;85.30;;;;;;5014807;28;20423;-73
2022/03/27 06:33:19;;;;;;;122.53;109.32;;;9.70;85.40;;;;;;5014662;28;20051;-73
2022/03/27 06:35:46;;;;;;;122.93;109.47;;;9.70;85.50;;;;;;5014464;28;20059;-73
2022/03/27 06:38:13;;;;;;;128.32;108.43;;;9.70;85.60;;;;;;5015430;28;20512;-73
2022/03/27 06:40:40;;;;;;;121.20;108.05;;;9.70;85.80;;;;;;5014438;28;20757;-73
2022/03/27 06:43:07;;;;;;;122.60;108.28;;;9.70;85.90;;;;;;5014281;28;20055;-73
2022/03/27 06:45:34;;;;;;;122.47;108.43;;;9.70;85.90;;;;;;5014225;28;20054;-73
2022/03/27 06:48:02;;;;;;;123.53;110.40;;;9.70;86.10;;;;;;5025666;28;20051;-73
2022/03/27 06:50:29;;;;;;;121.65;108.63;;;9.80;86.40;;;;;;5024876;28;20136;-73
2022/03/27 06:52:56;;;;;;;119.57;107.28;;;9.70;86.50;;;;;;5032601;28;20056;-73
2022/03/27 06:55:24;;;;;;;120.70;106.80;;;9.70;86.70;;;;;;5034401;28;20560;-73
2022/03/27 06:57:51;;;;;;;120.60;107.75;;;9.80;86.90;;;;;;5031547;28;20058;-74
2022/03/27 07:03:06;;;;;;;120.73;107.43;;;9.80;87.00;;;;;;5030286;28;20603;-74
2022/03/27 07:05:39;;;;;;;125.22;108.50;;;9.80;87.00;;;;;;5015984;28;20151;-76
2022/03/27 07:08:07;;;;;;;121.07;107.85;;;9.80;87.20;;;;;;5001996;28;20062;-75
2022/03/27 07:10:36;;;;;;;126.22;106.93;;;9.80;87.10;;;;;;5016798;28;20062;-75
2022/03/27 07:13:03;;;;;;;126.43;108.18;;;9.80;87.40;;;;;;5013725;28;20113;-74
2022/03/27 07:15:30;;;;;;;128.82;110.95;;;9.80;87.50;;;;;;5013677;28;20524;-74
2022/03/27 07:17:57;;;;;;;129.80;109.15;;;9.80;87.80;;;;;;5021156;28;20501;-74
2022/03/27 07:20:27;;;;;;;123.65;109.93;;;9.80;87.90;;;;;;5033384;28;20112;-73
2022/03/27 07:22:55;;;;;;;128.45;110.13;;;9.80;88.20;;;;;;5040090;28;20073;-74
2022/03/27 07:25:24;;;;;;;127.78;111.03;;;9.80;88.10;;;;;;5013084;28;20058;-75
2022/03/27 07:27:51;;;;;;;129.27;109.57;;;9.80;88.30;;;;;;5014303;28;20101;-73
2022/03/27 07:30:19;;;;;;;122.43;108.05;;;9.80;88.30;;;;;;5034314;28;20060;-73
2022/03/27 07:32:46;;;;;;;122.38;107.63;;;9.80;88.40;;;;;;5032764;28;20093;-73
2022/03/27 07:35:15;;;;;;;129.48;108.30;;;9.80;88.50;;;;;;5033850;28;20050;-73
2022/03/27 07:37:45;;;;;;;121.50;107.25;;;9.90;89.10;;;;;;5032131;28;20050;-73
2022/03/27 07:40:13;;;;;;;123.63;106.65;;;9.90;88.80;;;;;;5032987;28;20574;-73
2022/03/27 07:42:42;;;;;;;127.50;105.53;;;9.90;88.70;;;;;;5033222;28;20058;-73
2022/03/27 07:45:10;;;;;;;125.43;105.25;;;9.90;88.40;;;;;;5033763;28;20056;-73
2022/03/27 07:47:37;;;;;;;129.05;107.88;;;9.90;88.50;;;;;;5032719;28;20057;-73
2022/03/27 07:50:06;;;;;;;124.95;106.32;;;9.90;88.40;;;;;;5016532;28;20054;-74
2022/03/27 07:52:33;;;;;;;121.68;108.28;;;9.90;88.60;;;;;;5008031;28;20053;-73
2022/03/27 07:55:02;;;;;;;120.50;105.53;;;9.90;88.50;;;;;;5024649;28;20518;-73
2022/03/27 07:57:29;;;;;;;145.80;112.15;;;9.90;88.70;;;;;;5023841;28;20225;-73
2022/03/27 07:59:56;;;;;;;125.70;104.90;;;9.90;88.60;;;;;;5020771;28;20054;-72
2022/03/27 08:02:23;;;;;;;119.07;106.05;;;9.90;88.90;;;;;;5014136;28;20043;-72
2022/03/27 08:04:50;;;;;;;118.00;103.97;;;9.90;88.90;;;;;;5023076;28;20133;-75
2022/03/27 08:07:17;;;;;;;126.65;106.80;;;9.90;89.00;;;;;;5021366;28;20083;-75
2022/03/27 08:09:44;;;;;;;124.07;106.25;;;9.80;88.90;;;;;;5010903;28;20103;-75
2022/03/27 08:12:12;;;;;;;125.20;104.25;;;9.90;89.20;;;;;;5025465;28;20600;-75
2022/03/27 08:14:40;;;;;;;118.40;105.63;;;9.90;89.30;;;;;;5021575;28;20061;-75
2022/03/27 08:17:08;;;;;;;120.50;107.28;;;9.90;89.30;;;;;;5022707;28;20050;-75
2022/03/27 08:19:35;;;;;;;119.90;106.25;;;10.00;89.30;;;;;;5022029;28;20061;-75
2022/03/27 08:22:02;;;;;;;118.60;105.55;;;10.00;89.60;;;;;;5022818;28;20050;-76
2022/03/27 08:24:30;;;;;;;116.97;103.88;;;10.00;89.50;;;;;;5021665;28;20056;-75
2022/03/27 08:26:55;;;;;;;116.05;103.50;;;10.10;89.80;;;;;;5026415;28;21014;-74
2022/03/27 08:29:25;;;;;;;121.28;106.25;;;10.10;89.80;;;;;;5027830;28;20050;-74
2022/03/27 08:31:52;;;;;;;118.82;105.15;;;10.10;90.10;;;;;;5028079;28;20049;-74
2022/03/27 08:34:20;;;;;;;116.43;104.13;;;10.10;90.20;;;;;;4918435;28;20046;-73
2022/03/27 08:36:47;;;;;;;116.60;103.28;;;10.20;90.40;;;;;;5030636;28;20054;-75
2022/03/27 08:39:14;;;;;;;116.85;104.43;;;10.20;90.20;;;;;;5023817;28;20141;-74
2022/03/27 08:41:44;;;;;;;115.50;103.35;;;10.30;90.40;;;;;;5032516;28;20062;-74
2022/03/27 08:44:12;;;;;;;115.68;103.10;;;10.30;90.20;;;;;;5032469;28;20053;-74
2022/03/27 08:46:42;;;;;;;114.90;102.55;;;10.40;90.40;;;;;;5016000;28;20077;-75
2022/03/27 08:49:12;;;;;;;117.47;105.03;;;10.50;90.40;;;;;;5023062;28;20051;-74
2022/03/27 08:51:48;;;;;;;116.40;103.80;;;10.50;90.50;;;;;;5030172;28;20080;-74
2022/03/27 08:54:18;;;;;;;115.97;103.55;;;10.60;90.30;;;;;;5025522;28;20053;-74
2022/03/27 08:57:04;;;;;;;117.45;105.07;;;10.70;89.90;;;;;;5020068;28;20515;-74
2022/03/27 08:59:33;;;;;;;122.13;108.70;;;10.70;89.80;;;;;;5014743;28;20116;-74
2022/03/27 09:02:02;;;;;;;120.63;107.18;;;10.80;89.90;;;;;;4996066;28;20377;-74
2022/03/27 09:04:31;;;;;;;121.15;107.78;;;10.90;89.50;;;;;;5022013;28;20128;-74
2022/03/27 09:06:58;;;;;;;120.30;106.53;;;10.90;89.20;;;;;;5031699;28;20085;-74
2022/03/27 09:09:24;;;;;;;117.40;105.03;;;11.00;88.70;;;;;;5026444;28;20054;-76
2022/03/27 09:11:57;;;;;;;117.47;104.75;;;11.00;88.60;;;;;;5029268;28;20058;-78
2022/03/27 09:14:25;;;;;;;122.72;109.65;;;11.10;88.40;;;;;;5016030;28;20075;-76
2022/03/27 09:17:04;;;;;;;120.05;106.55;;;11.20;88.30;;;;;;5010468;28;20047;-74
2022/03/27 09:19:36;;;;;;;121.90;104.32;;;11.20;88.00;;;;;;5013296;28;20057;-74
2022/03/27 09:22:14;;;;;;;133.27;107.13;;;11.30;88.20;;;;;;5036558;28;20129;-72
2022/03/27 09:24:42;;;;;;;120.00;105.88;;;11.40;87.70;;;;;;5036467;28;20086;-72
2022/03/27 09:27:09;;;;;;;120.28;107.35;;;11.40;87.50;;;;;;5034455;28;20049;-72
2022/03/27 09:29:55;;;;;;;120.63;104.93;;;11.50;87.30;;;;;;5035498;28;20058;-72
2022/03/27 09:32:30;;;;;;;122.38;106.18;;;11.60;86.60;;;;;;5034779;28;20125;-75
2022/03/27 09:35:04;;;;;;;118.93;106.15;;;11.60;86.40;;;;;;5035427;28;20069;-74
2022/03/27 09:37:35;;;;;;;120.63;107.63;;;11.70;85.60;;;;;;5036038;28;20062;-74
2022/03/27 09:40:03;;;;;;;120.07;107.20;;;11.80;85.40;;;;;;5030267;28;20073;-76
2022/03/27 09:42:30;;;;;;;117.03;104.70;;;11.90;85.60;;;;;;5022782;28;20870;-75
2022/03/27 09:45:14;;;;;;;119.85;105.72;;;11.90;84.90;;;;;;5028970;28;20137;-75
2022/03/27 09:47:44;;;;;;;117.95;105.55;;;12.00;84.50;;;;;;5034318;28;20125;-75
2022/03/27 09:50:31;;;;;;;121.40;108.30;;;12.10;84.50;;;;;;5035613;28;20136;-75
2022/03/27 09:53:18;;;;;;;145.07;106.35;;;12.10;84.00;;;;;;5031467;28;20488;-75
2022/03/27 09:55:45;;;;;;;117.13;104.75;;;12.20;82.70;;;;;;5017213;28;20108;-75
2022/03/27 09:58:12;;;;;;;118.38;106.28;;;12.30;82.20;;;;;;5033843;28;20820;-75
2022/03/27 10:00:42;;;;;;;119.78;106.80;;;12.30;81.40;;;;;;5034253;28;20049;-74
2022/03/27 10:03:11;;;;;;;120.32;107.60;;;12.30;79.90;;;;;;5034177;28;20058;-74
2022/03/27 10:05:38;;;;;;;117.53;105.32;;;12.40;80.10;;;;;;5017468;28;20050;-75
2022/03/27 10:08:07;;;;;;;119.88;107.28;;;12.50;81.10;;;;;;5035368;28;20053;-75
2022/03/27 10:10:34;;;;;;;116.00;104.35;;;12.50;81.10;;;;;;5033638;28;20053;-75
2022/03/27 10:13:01;;;;;;;120.63;107.90;;;12.60;81.20;;;;;;5030713;28;20576;-75
2022/03/27 10:15:29;;;;;;;120.40;107.55;;;12.70;81.40;;;;;;5026011;28;20046;-82
2022/03/27 10:17:59;;;;;;;120.72;108.00;;;12.70;80.40;;;;;;5034699;28;20053;-80
2022/03/27 10:20:31;;;;;;;118.32;106.10;;;12.80;80.10;;;;;;5015287;28;20507;-80
2022/03/27 10:23:03;;;;;;;120.75;107.97;;;12.90;79.60;;;;;;4998551;28;20154;-80
2022/03/27 10:25:36;;;;;;;121.18;108.00;;;13.00;79.10;;;;;;5014829;28;20078;-78
2022/03/27 10:28:04;;;;;;;119.25;107.03;;;13.10;78.50;;;;;;5014362;28;20058;-80
2022/03/27 10:30:32;;;;;;;159.27;107.53;;;13.20;78.80;;;;;;4997925;28;20057;-78
2022/03/27 10:33:01;;;;;;;119.50;106.43;;;13.20;78.80;;;;;;5012991;28;20531;-77
2022/03/27 10:35:40;;;;;;;117.93;105.95;;;13.30;78.90;;;;;;5014604;28;20055;-78
2022/03/27 10:38:14;;;;;;;119.07;106.47;;;13.40;78.00;;;;;;5014480;28;20061;-78
2022/03/27 10:40:50;;;;;;;118.78;106.13;;;13.50;77.50;;;;;;5014483;28;20054;-77
2022/03/27 10:43:26;;;;;;;117.30;105.03;;;13.60;77.20;;;;;;4998221;28;20508;-77
2022/03/27 10:46:16;;;;;;;118.30;105.95;;;13.70;77.10;;;;;;5014631;28;20077;-78
2022/03/27 10:48:44;;;;;;;119.05;106.95;;;13.80;77.00;;;;;;5013968;28;20056;-79
2022/03/27 10:51:31;;;;;;;117.47;105.57;;;13.80;75.70;;;;;;4998294;28;20771;-78
2022/03/27 10:54:04;;;;;;;119.05;107.22;;;13.90;74.70;;;;;;5014447;28;20054;-80
2022/03/27 10:56:36;;;;;;;117.10;105.40;;;14.00;74.10;;;;;;5014221;28;20082;-79
2022/03/27 10:59:15;;;;;;;169.05;109.78;;;14.00;73.90;;;;;;4997471;28;20112;-80
2022/03/27 11:01:44;;;;;;;118.40;106.10;;;14.10;73.50;;;;;;5014520;28;20155;-78
2022/03/27 11:04:13;;;;;;;117.65;106.03;;;14.20;72.90;;;;;;5014181;28;20112;-79
2022/03/27 11:06:43;;;;;;;118.90;106.30;;;14.30;73.10;;;;;;5015560;28;20061;-79
2022/03/27 11:09:13;;;;;;;120.20;108.03;;;14.40;73.40;;;;;;5013675;28;20054;-79
2022/03/27 11:11:57;;;;;;;120.03;107.50;;;14.50;72.20;;;;;;5013860;28;20050;-78
2022/03/27 11:14:53;;;;;;;120.00;107.80;;;14.60;70.90;;;;;;5013669;28;20054;-79
2022/03/27 11:17:38;;;;;;;119.70;107.57;;;14.70;70.70;;;;;;5008621;28;20076;-78
2022/03/27 11:20:07;;;;;;;118.90;107.22;;;14.80;70.50;;;;;;4997551;28;20105;-78
2022/03/27 11:22:44;;;;;;;120.57;108.63;;;14.80;70.40;;;;;;5014001;28;20120;-79
2022/03/27 11:25:27;;;;;;;120.90;109.10;;;14.90;69.90;;;;;;5015954;28;20054;-78
2022/03/27 11:27:56;;;;;;;123.70;110.75;;;15.00;69.50;;;;;;5016940;28;20053;-83
2022/03/27 11:30:23;;;;;;;122.18;110.05;;;15.10;69.30;;;;;;5024547;28;20055;-77
2022/03/27 11:33:15;;;;;;;123.63;111.45;;;15.20;69.40;;;;;;5013885;28;20077;-77
2022/03/27 11:35:43;;;;;;;123.95;111.75;;;15.30;67.60;;;;;;5013644;28;20179;-83
2022/03/27 11:38:25;;;;;;;123.55;111.75;;;15.30;67.60;;;;;;5013559;28;20046;-84
2022/03/27 11:40:52;;;;;;;122.30;110.55;;;15.40;67.90;;;;;;5022053;28;20132;-78
2022/03/27 11:43:30;;;;;;;126.30;114.35;;;15.50;67.50;;;;;;5028938;28;20057;-81
2022/03/27 11:45:58;;;;;;;124.32;112.28;;;15.60;67.70;;;;;;5015624;28;20050;-78
2022/03/27 11:48:26;;;;;;;126.15;114.32;;;15.70;66.80;;;;;;5032953;28;20050;-78
2022/03/27 11:50:54;;;;;;;124.63;112.82;;;15.80;66.30;;;;;;5033222;28;20181;-76
2022/03/27 11:53:40;;;;;;;124.45;112.82;;;15.90;66.10;;;;;;5033367;28;20057;-79
2022/03/27 11:56:09;;;;;;;125.45;113.75;;;16.10;66.40;;;;;;5033410;28;20050;-79
2022/03/27 11:58:38;;;;;;;125.72;114.22;;;16.10;65.00;;;;;;5032787;28;20042;-80
2022/03/27 12:01:07;;;;;;;203.50;119.47;;;16.20;63.50;;;;;;5033170;28;20049;-81
2022/03/27 12:03:34;;;;;;;125.10;113.05;;;16.30;62.80;;;;;;5033060;28;20128;-80
2022/03/27 12:06:05;;;;;;;124.85;113.43;;;16.40;63.30;;;;;;5023977;28;20456;-78
2022/03/27 12:08:34;;;;;;;121.38;110.57;;;16.50;62.90;;;;;;5026529;28;20046;-77
2022/03/27 12:11:06;;;;;;;124.35;112.97;;;16.60;63.50;;;;;;5041196;28;20439;-77
2022/03/27 12:13:38;;;;;;;127.97;116.57;;;16.70;63.80;;;;;;5012810;28;20504;-77
2022/03/27 12:16:07;;;;;;;124.25;113.15;;;16.80;63.40;;;;;;5014021;28;20054;-78
2022/03/27 12:18:35;;;;;;;124.55;113.38;;;16.90;63.50;;;;;;4996203;28;20137;-77
2022/03/27 12:21:05;;;;;;;123.57;112.75;;;17.00;63.30;;;;;;5024632;28;20144;-75
2022/03/27 12:23:36;;;;;;;125.82;114.43;;;17.10;61.60;;;;;;5031993;28;20189;-76
2022/03/27 12:32:05;;;;;;;125.22;113.65;;;17.50;59.60;;;;;;5033167;28;20120;-78